Fort Benning, GA (31905)

11:36 PM EDT on August 31, 2015 (GMT -0400)
Hilton Heights- Lynda Lane | | Change Station
CLOSE
Current Station
Personal Weather Station
Location: Columbus, GA
Elevation: 387 ft
Nearby Weather Stations

Elev 387 ft 32.49 °N, 84.95 °W | Updated 46 seconds ago

Clear
Clear
76.6 °F
Feels Like 77 °F
N
0.0
Wind Variable Wind from NNW
Gusts 0.0 mph

Today
High -- | Low -- °F
--% Chance of Precip.
Yesterday
High -- | Low -- °F
Precip. -- in
7:13 AM 8:05 PM
Waning Gibbous, 92% visible
Pressure 30.07 in
Visibility 10.0 miles
Clouds Clear
Heat Index 77 °F
Dew Point 74 °F
Humidity 91%
Rainfall in
Snow Depth Not available.
UV 0.0 out of 12
Pollen 8.40 out of 12
Air Quality Not available.
Flu Activity Not available.
METAR KCSG 010251Z AUTO 00000KT 10SM CLR 24/21 A3008 RMK AO2 SLP181 T02440211 51014 $
Pressure 30.07 in
Visibility 10.0 miles
Clouds Clear
Heat Index 77 °F
Dew Point 74 °F
Humidity 91%
Rainfall in
Snow Depth Not available.
UV 0.0 out of 12
Pollen 8.40 out of 12
Air Quality Not available.
Flu Activity Not available.
METAR KCSG 010251Z AUTO 00000KT 10SM CLR 24/21 A3008 RMK AO2 SLP181 T02440211 51014 $

10-Day Weather Forecast

×

Almanac

Astronomy

Aug. 31, 2015 Rise Set
Actual Time
Civil Twilight
Nautical Twilight
Astronomical Twilight
Moon
Length of Visible Light
Length of Day
Tomorrow will be .
, % of the Moon is Illuminated

Today's Extremes

State Highs State Lows

Community

WunderPhotos

Upload Photos

1,851,475 photos uploaded!

WunderBlogs® & News

Nearby

Air Quality

  Air Quality AQ Index Pollutant
Not available.

Snow Depth

Station Depth Elevation

Earthquake Activity

City Distance Mag. Time & Date
Minimum magnitude displayed is 2.5.

Coastal Water Temperatures

Place Temperature

Stations

Nearby Weather Stations

Station Location Temp. Windchill Dew Point Humidity Wind Precip. Elev Updated Type